Time;durP1;ratioP1;P1;durP2;ratioP2;P2;SDS_P1;SDS_P2;PMS_P1;PMS_P2;Temp;Humidity;BMP_temperature;BMP_pressure;BME280_temperature;BME280_humidity;BME280_pressure;Samples;Min_cycle;Max_cycle;Signal;HPM_P1;HPM_P2
2022/06/01 00:02:01;;;;;;;11.80;7.10;;;;;;;12.84;69.79;97641.27;106080;1277;22553;-87
2022/06/01 00:04:29;;;;;;;13.40;11.90;;;;;;;12.88;69.29;97645.92;106167;1277;24204;-87
2022/06/01 00:06:57;;;;;;;10.70;7.90;;;;;;;12.92;69.14;97641.88;106296;1280;22786;-87
2022/06/01 00:09:25;;;;;;;12.50;9.30;;;;;;;12.96;69.23;97637.80;106051;1277;22537;-89
2022/06/01 00:11:53;;;;;;;14.10;10.10;;;;;;;13.02;69.31;97632.55;105924;1277;24302;-87
2022/06/01 00:14:21;;;;;;;7.90;6.80;;;;;;;13.01;69.99;97633.45;105859;1277;22543;-87
2022/06/01 00:16:52;;;;;;;9.10;6.80;;;;;;;12.92;70.17;97637.07;105795;1277;25397;-88
2022/06/01 00:19:20;;;;;;;11.70;7.40;;;;;;;12.88;70.53;97639.60;105859;1277;22538;-85
2022/06/01 00:24:37;;;;;;;10.30;7.80;;;;;;;12.84;70.38;97634.63;105891;1277;25543;-87
2022/06/01 00:27:06;;;;;;;9.40;7.10;;;;;;;12.84;70.40;97636.23;106035;1277;22698;-87
2022/06/01 00:29:36;;;;;;;9.10;6.40;;;;;;;12.79;70.96;97628.85;106011;1277;22598;-85
2022/06/01 00:32:05;;;;;;;11.10;7.80;;;;;;;12.71;71.94;97623.00;105826;1277;22550;-88
2022/06/01 00:34:33;;;;;;;9.20;7.30;;;;;;;12.65;71.54;97619.13;105776;1277;25509;-90
2022/06/01 00:37:01;;;;;;;9.80;8.10;;;;;;;12.62;71.42;97618.08;106068;1277;22562;-89
2022/06/01 00:39:29;;;;;;;9.20;8.00;;;;;;;12.60;71.53;97622.21;106190;1277;22659;-91
2022/06/01 00:42:14;;;;;;;8.20;7.40;;;;;;;12.61;72.77;97624.59;105992;1278;24373;-91
2022/06/01 00:44:44;;;;;;;9.30;7.40;;;;;;;12.65;72.59;97624.52;106006;1280;25984;-87
2022/06/01 00:47:15;;;;;;;10.90;8.60;;;;;;;12.68;72.69;97626.21;107154;1277;22568;-89
2022/06/01 00:50:21;;;;;;;42.70;36.80;;;;;;;12.68;72.55;97626.06;105999;1277;23423;-90
2022/06/01 00:52:57;;;;;;;35.20;31.70;;;;;;;12.77;72.14;97626.11;105970;1277;24184;-89
2022/06/01 00:55:29;;;;;;;11.60;8.30;;;;;;;12.76;73.04;97626.71;105993;1277;25461;-89
2022/06/01 00:58:06;;;;;;;11.40;7.40;;;;;;;12.69;72.73;97633.36;106067;1277;22762;-91
2022/06/01 01:00:35;;;;;;;8.90;7.80;;;;;;;12.66;73.31;97634.94;105996;1277;22621;-90
2022/06/01 01:03:06;;;;;;;10.70;8.30;;;;;;;12.66;72.45;97641.80;106111;1277;24422;-90
2022/06/01 01:05:35;;;;;;;9.00;8.00;;;;;;;12.70;72.50;97637.50;106214;1277;25362;-88
2022/06/01 01:08:04;;;;;;;13.20;11.10;;;;;;;12.74;72.78;97637.28;106132;1278;26208;-87
2022/06/01 01:10:33;;;;;;;11.60;10.50;;;;;;;12.67;73.40;97633.02;106607;1277;23928;-89
2022/06/01 01:13:05;;;;;;;9.70;7.30;;;;;;;12.58;73.37;97637.51;106792;1277;23110;-88
2022/06/01 01:15:55;;;;;;;21.50;16.70;;;;;;;12.55;73.50;97634.57;106053;1277;25653;-92
2022/06/01 01:18:29;;;;;;;17.20;14.00;;;;;;;12.58;73.49;97636.55;105994;1277;22597;-89
2022/06/01 01:21:01;;;;;;;14.90;12.80;;;;;;;12.55;73.85;97642.08;106043;1277;22556;-88
2022/06/01 01:23:59;;;;;;;12.40;9.70;;;;;;;12.54;73.81;97644.47;105897;1277;24435;-89
2022/06/01 01:26:28;;;;;;;11.70;8.90;;;;;;;12.52;73.92;97653.81;105936;1277;22556;-89
2022/06/01 01:28:56;;;;;;;11.00;8.40;;;;;;;12.51;73.72;97655.49;106067;1277;22713;-88
2022/06/01 01:31:25;;;;;;;22.40;18.10;;;;;;;12.52;73.70;97650.66;106113;1277;22615;-88
2022/06/01 01:33:55;;;;;;;79.60;50.90;;;;;;;12.51;74.47;97648.70;105957;1278;23539;-88
2022/06/01 01:36:34;;;;;;;22.90;20.40;;;;;;;12.48;75.01;97645.16;105998;1277;22574;-88
2022/06/01 01:39:13;;;;;;;13.50;11.80;;;;;;;12.44;75.25;97641.02;105889;1277;25296;-88
2022/06/01 01:41:47;;;;;;;11.00;9.70;;;;;;;12.38;75.46;97635.69;105904;1277;22656;-86
2022/06/01 01:44:25;;;;;;;;;;;;;;;12.38;75.12;97637.52;106232;1277;22732;-87
2022/06/01 01:46:56;;;;;;;10.00;9.00;;;;;;;12.40;75.14;97637.79;106592;1277;24225;-87
2022/06/01 01:49:30;;;;;;;10.50;9.20;;;;;;;12.43;75.29;97637.42;106052;1277;22622;-89
2022/06/01 01:52:02;;;;;;;9.30;8.40;;;;;;;12.46;75.13;97634.40;105906;1277;24224;-89
2022/06/01 01:54:54;;;;;;;13.70;9.50;;;;;;;12.47;75.46;97633.68;105849;1278;22689;-87
2022/06/01 01:57:33;;;;;;;16.50;14.60;;;;;;;12.49;75.33;97630.61;106026;1280;22675;-88
2022/06/01 02:00:07;;;;;;;24.50;22.40;;;;;;;12.52;75.63;97626.17;105922;1277;25361;-88
2022/06/01 02:03:06;;;;;;;9.90;8.40;;;;;;;12.54;75.95;97637.23;106025;1277;24433;-87
2022/06/01 02:06:09;;;;;;;8.60;7.60;;;;;;;12.50;77.22;97654.45;105853;1277;22574;-89
2022/06/01 02:08:46;;;;;;;10.30;8.40;;;;;;;12.51;77.43;97667.67;106029;1277;22563;-89
2022/06/01 02:14:25;;;;;;;11.70;8.10;;;;;;;12.80;76.56;97665.80;105881;1277;22550;-90
2022/06/01 02:16:59;;;;;;;10.90;8.20;;;;;;;13.03;75.85;97668.85;105933;1278;24462;-90
2022/06/01 02:19:39;;;;;;;11.90;8.90;;;;;;;13.25;74.90;97661.19;106084;1277;22619;-90
2022/06/01 02:22:08;;;;;;;12.90;9.90;;;;;;;13.40;74.39;97660.91;106100;1277;25718;-91
2022/06/01 02:24:38;;;;;;;13.00;9.20;;;;;;;13.50;74.14;97661.26;106010;1277;25739;-89
2022/06/01 02:27:07;;;;;;;14.40;9.90;;;;;;;13.59;74.02;97662.73;105900;1277;22616;-91
2022/06/01 02:29:43;;;;;;;12.50;11.00;;;;;;;13.65;73.75;97661.18;105900;1277;22773;-90
2022/06/01 02:32:12;;;;;;;13.70;12.30;;;;;;;13.71;73.38;97668.55;106020;1277;22554;-90
2022/06/01 02:34:43;;;;;;;16.90;12.70;;;;;;;13.76;73.32;97666.71;106001;1277;24612;-89
2022/06/01 02:37:16;;;;;;;16.70;14.40;;;;;;;13.79;73.38;97661.44;105841;1278;25347;-91
2022/06/01 02:39:52;;;;;;;18.60;13.80;;;;;;;13.82;73.47;97657.00;106240;1277;23933;-90
2022/06/01 02:42:27;;;;;;;17.00;13.30;;;;;;;13.82;73.32;97654.58;106001;1278;22531;-88
2022/06/01 02:44:56;;;;;;;18.20;13.40;;;;;;;13.80;73.75;97659.30;105946;1277;24372;-88
2022/06/01 02:47:26;;;;;;;19.70;13.70;;;;;;;13.77;73.75;97657.44;105888;1277;22753;-89
2022/06/01 02:49:54;;;;;;;18.50;14.90;;;;;;;13.76;73.94;97653.59;105951;1278;24280;-89
2022/06/01 02:52:22;;;;;;;21.00;14.50;;;;;;;13.71;74.22;97653.67;105995;1277;22556;-86
2022/06/01 02:54:49;;;;;;;16.70;14.30;;;;;;;13.64;74.00;97653.89;105907;1277;22674;-88
2022/06/01 02:57:18;;;;;;;16.30;13.70;;;;;;;13.60;74.54;97653.01;106057;1277;25496;-86
2022/06/01 02:59:47;;;;;;;14.60;13.20;;;;;;;13.55;74.50;97659.41;105998;1277;24128;-88
2022/06/01 03:02:15;;;;;;;13.50;12.20;;;;;;;13.53;74.60;97665.71;105936;1277;24314;-89
2022/06/01 03:04:44;;;;;;;15.30;13.70;;;;;;;13.50;74.60;97671.17;105869;1277;24287;-87
2022/06/01 03:07:13;;;;;;;16.20;13.50;;;;;;;13.48;74.83;97681.05;106093;1278;23442;-88
2022/06/01 03:09:41;;;;;;;20.90;14.10;;;;;;;13.48;74.93;97686.24;105846;1277;24477;-85
2022/06/01 03:12:10;;;;;;;19.10;14.60;;;;;;;13.51;75.47;97687.98;106032;1277;22536;-88
2022/06/01 03:14:38;;;;;;;15.80;14.10;;;;;;;13.50;75.59;97689.48;105850;1278;23943;-88
2022/06/01 03:17:06;;;;;;;15.90;13.30;;;;;;;13.48;75.63;97698.15;105970;1280;22706;-87
2022/06/01 03:19:35;;;;;;;16.70;14.10;;;;;;;13.45;75.71;97697.64;106043;1277;22561;-88
2022/06/01 03:22:04;;;;;;;12.90;11.60;;;;;;;13.43;75.89;97702.89;106109;1277;23213;-87
2022/06/01 03:24:32;;;;;;;14.80;12.10;;;;;;;13.42;76.40;97704.69;106210;1277;22695;-86
2022/06/01 03:27:00;;;;;;;13.70;11.70;;;;;;;13.37;76.15;97713.40;106206;1277;22552;-85
2022/06/01 03:29:28;;;;;;;12.10;10.80;;;;;;;13.34;76.24;97713.88;105945;1277;25580;-87
2022/06/01 03:31:58;;;;;;;11.40;10.20;;;;;;;13.35;76.70;97707.95;106017;1277;22548;-87
2022/06/01 03:34:28;;;;;;;11.10;9.90;;;;;;;13.34;76.55;97711.04;105958;1277;22655;-86
2022/06/01 03:36:57;;;;;;;14.40;8.70;;;;;;;13.33;76.88;97710.81;105936;1277;25417;-87
2022/06/01 03:39:25;;;;;;;10.40;9.10;;;;;;;13.30;77.02;97708.76;106054;1277;24294;-89
2022/06/01 03:41:52;;;;;;;9.60;8.60;;;;;;;13.31;76.95;97708.46;108367;1277;23013;-85
2022/06/01 03:47:11;;;;;;;10.10;9.10;;;;;;;13.32;77.48;97710.00;109032;1277;22580;-87
2022/06/01 03:49:39;;;;;;;9.60;8.60;;;;;;;13.32;77.80;97710.69;106202;1277;22698;-87
2022/06/01 03:52:07;;;;;;;11.40;9.00;;;;;;;13.32;77.35;97719.72;106217;1278;22719;-87
2022/06/01 03:54:36;;;;;;;10.00;8.20;;;;;;;13.36;76.71;97720.47;106156;1277;25430;-87
2022/06/01 03:57:05;;;;;;;11.50;8.40;;;;;;;13.43;77.94;97707.36;106179;1277;22688;-89
2022/06/01 03:59:33;;;;;;;12.70;9.00;;;;;;;13.44;77.57;97708.24;105954;1277;22560;-86
2022/06/01 04:02:04;;;;;;;11.30;9.20;;;;;;;13.45;77.64;97715.86;105913;1277;22542;-86
2022/06/01 04:04:34;;;;;;;10.30;8.30;;;;;;;13.46;78.11;97719.92;105924;1277;22535;-87
2022/06/01 04:07:02;;;;;;;11.00;7.80;;;;;;;13.46;77.78;97716.91;106114;1277;22699;-87
2022/06/01 04:09:30;;;;;;;9.90;8.00;;;;;;;13.50;77.55;97723.36;106123;1277;22563;-86
2022/06/01 04:11:58;;;;;;;13.90;8.10;;;;;;;13.56;78.32;97731.34;105844;1277;22570;-87
2022/06/01 04:14:26;;;;;;;9.70;7.60;;;;;;;13.54;78.30;97723.48;105901;1277;22766;-86
2022/06/01 04:16:54;;;;;;;8.20;7.00;;;;;;;13.51;78.74;97713.45;105909;1278;24250;-87
2022/06/01 04:19:22;;;;;;;10.90;6.50;;;;;;;13.50;78.89;97716.86;105907;1277;23517;-87
2022/06/01 04:21:53;;;;;;;10.20;7.40;;;;;;;13.48;78.92;97719.35;106058;1277;25292;-86
2022/06/01 04:24:27;;;;;;;10.80;6.90;;;;;;;13.49;78.38;97721.99;105979;1278;22912;-87
2022/06/01 04:26:55;;;;;;;10.60;6.80;;;;;;;13.50;78.25;97724.93;105988;1277;22855;-87
2022/06/01 04:29:23;;;;;;;10.70;6.60;;;;;;;13.52;78.87;97731.95;106450;1278;23618;-87
2022/06/01 04:32:00;;;;;;;12.40;6.60;;;;;;;13.53;78.28;97733.39;106520;1278;22812;-88
2022/06/01 04:34:28;;;;;;;8.90;5.90;;;;;;;13.56;78.67;97733.13;106011;1277;24495;-88
2022/06/01 04:36:56;;;;;;;10.50;6.50;;;;;;;13.56;78.46;97726.73;106033;1277;24222;-88
2022/06/01 04:39:24;;;;;;;7.60;5.60;;;;;;;13.58;78.56;97716.38;105893;1277;24497;-89
2022/06/01 04:41:52;;;;;;;6.40;5.30;;;;;;;13.58;79.15;97699.05;105905;1277;22574;-86
2022/06/01 04:44:20;;;;;;;9.80;5.50;;;;;;;13.59;79.17;97690.04;105848;1280;24357;-87
2022/06/01 04:46:48;;;;;;;9.90;5.70;;;;;;;13.61;78.77;97691.96;105845;1278;22650;-88
2022/06/01 04:49:16;;;;;;;7.80;5.50;;;;;;;13.64;78.70;97691.15;105930;1280;22701;-88
2022/06/01 04:51:44;;;;;;;6.70;5.20;;;;;;;13.64;78.37;97689.40;105935;1280;23727;-87
2022/06/01 04:54:12;;;;;;;6.60;5.10;;;;;;;13.66;78.28;97697.02;106065;1278;22485;-87
2022/06/01 04:56:40;;;;;;;6.50;5.10;;;;;;;13.67;79.46;97708.89;105982;1278;25612;-86
2022/06/01 04:59:09;;;;;;;6.60;4.50;;;;;;;13.67;79.34;97713.70;106094;1278;25296;-87
2022/06/01 05:01:37;;;;;;;6.00;5.00;;;;;;;13.71;79.57;97710.55;105944;1277;22558;-88
2022/06/01 05:04:06;;;;;;;7.80;5.70;;;;;;;13.71;79.13;97707.88;106245;1278;25396;-88
2022/06/01 05:06:34;;;;;;;9.80;6.40;;;;;;;13.72;79.57;97717.80;106170;1277;24330;-88
2022/06/01 05:09:02;;;;;;;7.80;4.80;;;;;;;13.70;80.11;97719.65;106010;1278;25366;-87
2022/06/01 05:11:31;;;;;;;7.50;4.90;;;;;;;13.66;80.00;97713.23;105900;1277;25487;-88
2022/06/01 05:13:59;;;;;;;7.40;5.00;;;;;;;13.66;79.71;97718.08;105989;1278;22698;-87
2022/06/01 05:16:27;;;;;;;11.50;4.80;;;;;;;13.67;80.05;97720.14;106328;1277;22760;-87
2022/06/01 05:18:55;;;;;;;6.80;4.50;;;;;;;13.66;80.56;97719.95;106252;1277;22658;-87
2022/06/01 05:21:24;;;;;;;6.10;4.60;;;;;;;13.62;79.90;97717.48;106494;1277;24231;-88
2022/06/01 05:23:51;;;;;;;5.10;4.60;;;;;;;13.64;80.20;97719.30;106224;1277;24383;-87
2022/06/01 05:26:19;;;;;;;8.00;6.10;;;;;;;13.65;79.98;97716.89;106179;1277;22616;-87
2022/06/01 05:28:48;;;;;;;10.90;7.70;;;;;;;13.71;79.74;97714.27;105802;1277;25914;-86
2022/06/01 05:31:16;;;;;;;10.90;6.60;;;;;;;13.81;79.59;97720.86;106176;1277;22701;-86
2022/06/01 05:33:49;;;;;;;9.40;6.90;;;;;;;13.90;79.57;97721.30;106528;1277;22687;-86
2022/06/01 05:36:17;;;;;;;13.10;7.80;;;;;;;14.00;79.46;97713.89;106129;1277;22620;-87
2022/06/01 05:38:48;;;;;;;11.00;7.90;;;;;;;14.08;79.42;97704.65;106129;1277;22796;-87
2022/06/01 05:41:16;;;;;;;12.50;8.30;;;;;;;14.17;79.32;97689.09;106110;1277;26563;-87
2022/06/01 05:43:45;;;;;;;18.90;8.10;;;;;;;14.22;79.40;97694.03;106163;1277;24218;-87
2022/06/01 05:46:14;;;;;;;10.90;7.50;;;;;;;14.25;79.52;97720.07;106162;1277;22533;-86
2022/06/01 05:48:41;;;;;;;10.20;7.60;;;;;;;14.24;79.69;97732.38;106079;1277;22616;-87
2022/06/01 05:51:10;;;;;;;9.50;8.40;;;;;;;14.27;79.54;97729.45;106102;1277;24225;-88
2022/06/01 05:53:37;;;;;;;11.90;8.90;;;;;;;14.30;79.61;97723.29;106124;1277;24429;-88
2022/06/01 05:56:05;;;;;;;13.40;7.50;;;;;;;14.36;79.55;97718.20;106086;1277;22547;-87
2022/06/01 05:58:33;;;;;;;10.00;7.60;;;;;;;14.36;79.40;97719.69;106112;1277;22655;-88
2022/06/01 06:01:05;;;;;;;9.50;7.10;;;;;;;14.40;80.10;97722.31;106109;1277;22711;-87
2022/06/01 06:03:34;;;;;;;10.70;7.70;;;;;;;14.36;80.08;97723.23;106202;1277;23103;-89
2022/06/01 06:06:12;;;;;;;7.90;6.30;;;;;;;14.34;80.02;97730.13;106123;1277;22619;-87
2022/06/01 06:09:00;;;;;;;7.50;5.90;;;;;;;14.35;79.88;97737.84;106075;1277;22681;-87
2022/06/01 06:11:32;;;;;;;11.20;7.60;;;;;;;14.41;79.84;97735.04;106073;1277;22609;-86
2022/06/01 06:14:01;;;;;;;10.60;8.20;;;;;;;14.45;79.65;97731.48;106129;1277;22745;-85
2022/06/01 06:16:33;;;;;;;8.90;7.20;;;;;;;14.47;79.92;97733.90;106081;1277;22608;-87
2022/06/01 06:19:04;;;;;;;11.30;8.10;;;;;;;14.47;79.68;97736.05;106171;1277;24371;-86
2022/06/01 06:21:32;;;;;;;8.80;7.50;;;;;;;14.49;79.77;97736.14;106128;1278;24173;-87
2022/06/01 06:24:18;;;;;;;10.60;7.00;;;;;;;14.53;80.21;97734.77;106045;1278;22632;-86
2022/06/01 06:26:47;;;;;;;8.10;6.60;;;;;;;14.47;79.95;97726.55;105952;1278;22703;-87
2022/06/01 06:29:17;;;;;;;8.00;6.20;;;;;;;14.47;79.98;97724.66;106023;1278;22754;-87
2022/06/01 06:31:45;;;;;;;7.70;6.40;;;;;;;14.44;80.19;97724.40;106142;1278;22563;-87
2022/06/01 06:34:16;;;;;;;18.30;12.50;;;;;;;14.40;80.08;97733.09;106169;1278;22681;-87
2022/06/01 06:36:45;;;;;;;18.30;11.80;;;;;;;14.37;80.39;97734.50;106193;1277;22606;-88
2022/06/01 06:39:13;;;;;;;20.50;14.60;;;;;;;14.32;80.53;97737.18;106311;1278;22550;-88
2022/06/01 06:41:41;;;;;;;13.20;10.80;;;;;;;14.26;80.86;97734.22;106220;1277;25631;-87
2022/06/01 06:44:09;;;;;;;17.20;12.40;;;;;;;14.20;81.14;97744.34;106228;1278;22542;-87
2022/06/01 06:46:37;;;;;;;12.20;7.90;;;;;;;14.14;81.47;97740.63;106299;1279;22750;-87
2022/06/01 06:49:06;;;;;;;21.90;15.90;;;;;;;14.05;82.53;97741.68;106180;1280;22770;-87
2022/06/01 06:51:37;;;;;;;17.90;16.00;;;;;;;13.94;82.34;97749.71;106493;1278;22609;-85
2022/06/01 06:54:05;;;;;;;34.80;22.80;;;;;;;13.88;82.38;97748.11;109003;1278;22654;-87
2022/06/01 06:56:33;;;;;;;24.00;15.60;;;;;;;13.87;83.29;97751.94;106175;1280;23071;-88
2022/06/01 06:59:03;;;;;;;32.20;21.70;;;;;;;13.84;83.64;97759.84;106051;1280;22534;-88
2022/06/01 07:01:31;;;;;;;19.40;14.20;;;;;;;13.79;84.04;97760.39;106157;1279;22614;-89
2022/06/01 07:04:00;;;;;;;17.70;16.10;;;;;;;13.72;84.05;97757.11;106259;1278;22872;-91
2022/06/01 07:06:31;;;;;;;12.50;11.40;;;;;;;13.71;83.70;97757.88;106181;1278;25360;-90
2022/06/01 07:09:00;;;;;;;9.20;7.80;;;;;;;13.73;83.20;97760.67;106853;1278;22541;-92
2022/06/01 07:11:30;;;;;;;10.90;7.30;;;;;;;13.78;83.19;97762.22;106406;1280;23951;-90
2022/06/01 07:13:59;;;;;;;9.00;7.30;;;;;;;13.86;83.13;97751.42;106355;1278;22883;-89
2022/06/01 07:16:30;;;;;;;9.90;6.90;;;;;;;13.96;83.14;97743.69;106319;1278;23283;-85
2022/06/01 07:19:02;;;;;;;10.60;7.50;;;;;;;14.07;82.82;97742.14;106391;1280;22712;-89
2022/06/01 07:21:31;;;;;;;7.90;7.00;;;;;;;14.16;83.33;97736.84;106427;1277;26667;-86
2022/06/01 07:24:00;;;;;;;8.90;7.10;;;;;;;14.24;83.20;97747.84;106287;1277;22806;-89
2022/06/01 07:26:36;;;;;;;9.60;6.10;;;;;;;14.31;82.93;97751.38;106272;1277;22754;-89
2022/06/01 07:29:04;;;;;;;9.30;6.90;;;;;;;14.42;82.96;97748.55;106156;1277;22710;-89
2022/06/01 07:31:33;;;;;;;9.80;6.40;;;;;;;14.51;82.91;97746.80;106465;1277;24218;-88
2022/06/01 07:34:02;;;;;;;8.20;6.90;;;;;;;14.61;82.91;97759.24;106269;1277;23600;-89
2022/06/01 07:36:31;;;;;;;9.60;7.00;;;;;;;14.72;82.76;97761.23;106411;1277;24206;-92
2022/06/01 07:43:05;;;;;;;10.70;7.70;;;;;;;14.88;82.92;97764.52;107299;1277;22545;-89
2022/06/01 07:44:49;;;;;;;11.40;8.00;;;;;;;15.00;83.18;97767.32;108111;1277;22779;-89
2022/06/01 07:47:18;;;;;;;11.80;7.70;;;;;;;15.09;83.28;97767.70;106643;1278;22699;-91
2022/06/01 07:50:06;;;;;;;8.10;5.70;;;;;;;15.18;83.32;97770.85;106511;1277;22556;-91
2022/06/01 07:52:54;;;;;;;8.30;5.90;;;;;;;15.28;82.99;97769.66;106243;1277;24530;-91
2022/06/01 07:55:23;;;;;;;7.20;5.60;;;;;;;15.41;83.29;97771.85;106262;1277;22577;-88
2022/06/01 07:57:50;;;;;;;6.70;5.80;;;;;;;15.57;83.42;97771.77;106238;1277;24421;-82
2022/06/01 08:00:19;;;;;;;7.70;6.30;;;;;;;15.74;83.30;97775.66;106134;1277;22872;-82
2022/06/01 08:02:47;;;;;;;7.00;5.70;;;;;;;15.87;83.38;97772.25;106129;1277;22569;-81
2022/06/01 08:05:18;;;;;;;9.60;5.90;;;;;;;15.98;83.25;97774.47;106165;1277;22755;-81
2022/06/01 08:07:46;;;;;;;7.50;5.50;;;;;;;16.22;83.48;97776.97;106212;1277;24231;-82
2022/06/01 08:10:18;;;;;;;6.70;4.80;;;;;;;16.52;83.37;97775.75;106281;1277;25250;-82
2022/06/01 08:15:35;;;;;;;7.80;5.80;;;;;;;17.01;82.69;97780.21;106308;1277;25308;-83
2022/06/01 08:18:04;;;;;;;6.50;5.50;;;;;;;17.08;82.36;97779.71;106148;1278;22669;-82
2022/06/01 08:20:32;;;;;;;6.00;4.70;;;;;;;17.12;82.24;97781.80;106125;1277;22541;-82
2022/06/01 08:23:01;;;;;;;7.60;4.20;;;;;;;17.21;81.96;97781.75;106055;1277;22545;-82
2022/06/01 08:25:29;;;;;;;7.10;4.20;;;;;;;17.32;81.74;97782.30;106142;1280;24259;-80
2022/06/01 08:27:57;;;;;;;4.00;3.60;;;;;;;17.39;81.59;97783.73;106219;1277;22557;-81
2022/06/01 08:30:27;;;;;;;6.30;3.90;;;;;;;17.38;81.10;97783.63;106229;1277;22844;-82
2022/06/01 08:32:56;;;;;;;5.00;3.70;;;;;;;17.49;81.24;97782.39;106113;1277;25414;-82
2022/06/01 08:35:31;;;;;;;6.10;4.20;;;;;;;17.67;80.96;97780.37;106179;1277;26530;-80
2022/06/01 08:38:00;;;;;;;4.50;3.70;;;;;;;17.86;80.67;97782.95;106184;1277;22694;-81
2022/06/01 08:40:32;;;;;;;4.80;3.40;;;;;;;17.97;79.43;97781.84;106214;1277;22699;-80
2022/06/01 08:43:08;;;;;;;6.40;4.10;;;;;;;18.07;79.98;97780.67;106185;1277;23452;-81
2022/06/01 08:45:36;;;;;;;5.90;3.40;;;;;;;18.29;79.92;97776.14;106137;1277;22547;-81
2022/06/01 08:48:05;;;;;;;4.20;3.00;;;;;;;18.43;78.58;97776.04;106179;1277;22680;-82
2022/06/01 08:50:37;;;;;;;4.10;3.30;;;;;;;18.55;78.05;97777.17;106213;1277;22562;-80
2022/06/01 08:53:08;;;;;;;3.70;3.20;;;;;;;18.70;78.02;97775.17;106228;1280;23391;-81
2022/06/01 08:55:45;;;;;;;3.30;2.90;;;;;;;18.87;76.42;97780.13;106200;1280;22545;-81
2022/06/01 08:58:16;;;;;;;5.20;3.40;;;;;;;18.95;75.84;97781.23;106253;1280;22709;-80
2022/06/01 09:00:58;;;;;;;3.70;3.10;;;;;;;19.00;75.81;97781.03;106308;1280;22644;-80
2022/06/01 09:03:34;;;;;;;7.00;3.90;;;;;;;19.07;75.05;97783.52;106168;1280;22758;-79
2022/06/01 09:06:13;;;;;;;5.30;4.10;;;;;;;19.13;73.07;97786.75;106357;1280;23926;-80
2022/06/01 09:08:55;;;;;;;8.60;4.00;;;;;;;19.00;72.06;97781.95;106217;1280;24106;-79
2022/06/01 09:11:32;;;;;;;6.30;4.40;;;;;;;18.98;71.69;97784.27;106043;1280;24363;-80
2022/06/01 09:14:24;;;;;;;6.70;3.90;;;;;;;18.96;71.17;97788.05;106372;1280;25364;-80
2022/06/01 09:16:57;;;;;;;7.30;4.80;;;;;;;18.99;70.33;97789.27;106118;1279;22717;-81
2022/06/01 09:22:37;;;;;;;6.30;4.30;;;;;;;19.18;70.74;97791.64;106144;1280;22869;-80
2022/06/01 09:22:37;;;;;;;5.40;3.90;;;;;;;19.40;70.75;97795.04;106219;1280;22714;-80
2022/06/01 09:25:18;;;;;;;6.50;3.50;;;;;;;19.28;69.57;97794.40;106529;1280;22547;-80
2022/06/01 09:27:51;;;;;;;5.60;3.50;;;;;;;19.15;70.46;97795.79;106195;1280;22560;-82
2022/06/01 09:30:31;;;;;;;10.10;5.70;;;;;;;19.18;69.92;97797.63;106034;1280;23018;-82
2022/06/01 09:33:01;;;;;;;7.40;4.70;;;;;;;19.35;68.79;97794.10;106075;1280;22593;-81
2022/06/01 09:35:34;;;;;;;5.10;4.10;;;;;;;19.48;68.90;97788.89;106146;1277;25431;-81
2022/06/01 09:38:04;;;;;;;5.40;4.00;;;;;;;19.69;68.80;97791.98;106082;1280;25334;-82
2022/06/01 09:40:36;;;;;;;5.90;4.30;;;;;;;19.70;68.12;97793.95;106133;1280;22673;-82
2022/06/01 09:43:04;;;;;;;8.60;4.60;;;;;;;19.66;67.44;97794.17;106083;1280;22617;-81
2022/06/01 09:45:38;;;;;;;11.90;5.50;;;;;;;19.73;65.93;97793.16;106223;1280;25480;-81
2022/06/01 09:49:15;;;;;;;11.60;5.50;;;;;;;19.80;64.59;97797.04;106203;1280;22726;-81
2022/06/01 09:52:42;;;;;;;13.40;7.10;;;;;;;19.82;64.40;97796.60;106142;1280;22747;-82
2022/06/01 09:55:19;;;;;;;5.80;3.70;;;;;;;19.93;64.70;97798.61;106196;1280;22551;-82
2022/06/01 09:58:05;;;;;;;6.20;3.50;;;;;;;20.18;65.46;97794.85;106186;1280;22558;-81
2022/06/01 10:06:50;;;;;;;12.20;6.10;;;;;;;19.59;61.75;97802.45;106266;1277;22700;-84
2022/06/01 10:09:25;;;;;;;4.80;3.10;;;;;;;19.69;60.08;97803.48;106261;1280;22649;-83
2022/06/01 10:11:54;;;;;;;4.60;3.10;;;;;;;19.88;60.72;97800.94;106241;1277;22710;-84
2022/06/01 10:14:27;;;;;;;4.20;2.90;;;;;;;20.12;60.27;97795.90;106046;1280;22591;-83
2022/06/01 10:17:02;;;;;;;5.30;3.20;;;;;;;20.11;60.00;97796.51;106324;1280;24263;-89
2022/06/01 10:19:36;;;;;;;10.20;4.50;;;;;;;20.32;59.79;97796.24;106072;1280;243824;-87
2022/06/01 10:22:10;;;;;;;5.40;3.30;;;;;;;20.51;57.16;97795.26;106263;1279;25370;-87
2022/06/01 10:24:51;;;;;;;16.20;8.50;;;;;;;20.62;56.84;97798.41;106249;1278;22613;-85
2022/06/01 10:27:27;;;;;;;8.10;4.40;;;;;;;20.71;55.43;97794.87;106151;1278;24378;-79
2022/06/01 10:30:33;;;;;;;10.70;5.90;;;;;;;20.88;56.27;97788.45;106113;1280;22880;-77
2022/06/01 10:33:23;;;;;;;14.20;8.20;;;;;;;21.12;54.41;97791.69;106495;1277;24066;-78
2022/06/01 10:35:53;;;;;;;5.90;4.20;;;;;;;21.31;54.56;97792.42;106270;1277;25113;-77
2022/06/01 10:39:03;;;;;;;6.80;2.70;;;;;;;21.43;53.16;97796.49;106264;1277;22847;-79
2022/06/01 10:41:46;;;;;;;5.20;2.70;;;;;;;21.50;54.98;97787.66;105784;1283;25413;-79
2022/06/01 10:44:31;;;;;;;5.50;2.90;;;;;;;21.65;53.15;97789.48;105862;1282;25656;-84
2022/06/01 10:47:18;;;;;;;5.90;2.90;;;;;;;21.52;53.56;97792.70;105863;1283;23198;-83
2022/06/01 10:50:18;;;;;;;3.60;2.90;;;;;;;21.43;54.09;97791.73;105821;1283;24401;-84
2022/06/01 10:52:54;;;;;;;5.30;2.80;;;;;;;21.32;52.71;97793.98;105184;1289;22871;-80
2022/06/01 10:55:34;;;;;;;4.80;2.80;;;;;;;21.29;51.95;97791.52;105134;1289;22664;-81
2022/06/01 10:58:03;;;;;;;6.00;3.30;;;;;;;21.45;52.32;97794.89;105341;1289;23742;-83
2022/06/01 11:00:44;;;;;;;5.50;3.50;;;;;;;21.61;51.30;97789.20;105061;1289;22582;-79
2022/06/01 11:03:22;;;;;;;6.00;3.70;;;;;;;21.49;50.31;97793.30;104933;1292;25397;-79
2022/06/01 11:06:02;;;;;;;6.00;3.50;;;;;;;21.38;50.90;97795.34;104975;1290;23308;-84
2022/06/01 11:08:39;;;;;;;7.90;3.20;;;;;;;21.33;50.99;97793.07;105499;1290;22572;-85
2022/06/01 11:11:36;;;;;;;7.20;3.20;;;;;;;21.51;51.60;97793.55;104967;1290;26205;-84
2022/06/01 11:14:10;;;;;;;7.70;4.10;;;;;;;21.75;51.13;97791.55;105079;1289;24229;-85
2022/06/01 11:17:01;;;;;;;5.30;3.00;;;;;;;21.94;50.15;97789.88;105064;1286;24107;-83
2022/06/01 11:19:38;;;;;;;5.40;2.90;;;;;;;22.06;48.32;97799.55;105548;1284;22633;-84
2022/06/01 11:22:44;;;;;;;7.70;2.70;;;;;;;22.13;48.77;97797.45;105551;1284;22678;-84
2022/06/01 11:25:22;;;;;;;6.80;3.80;;;;;;;22.29;48.82;97794.63;105648;1284;22774;-85
2022/06/01 11:28:27;;;;;;;8.30;2.90;;;;;;;22.53;48.63;97793.33;105624;1284;22720;-85
2022/06/01 11:31:13;;;;;;;4.60;2.60;;;;;;;22.70;44.98;97792.98;105595;1284;22580;-84
2022/06/01 11:33:49;;;;;;;6.40;2.80;;;;;;;22.77;45.58;97786.69;105558;1284;22576;-86
2022/06/01 11:36:52;;;;;;;4.90;2.40;;;;;;;23.00;45.10;97782.55;105511;1284;22717;-83
2022/06/01 11:39:46;;;;;;;3.60;2.50;;;;;;;23.15;44.06;97781.28;105319;1284;23958;-83
2022/06/01 11:42:40;;;;;;;5.20;2.30;;;;;;;23.47;44.84;97783.16;105377;1286;22712;-85
2022/06/01 11:45:20;;;;;;;6.00;2.50;;;;;;;23.61;44.80;97785.89;105451;1286;22558;-87
2022/06/01 11:47:56;;;;;;;3.90;2.20;;;;;;;23.66;44.35;97789.52;105526;1286;22730;-83
2022/06/01 11:50:56;;;;;;;4.40;2.30;;;;;;;23.48;42.27;97790.78;105330;1286;22640;-86
2022/06/01 11:53:46;;;;;;;5.30;2.60;;;;;;;23.07;41.92;97790.67;105177;1287;24448;-86
2022/06/01 11:56:30;;;;;;;5.20;2.10;;;;;;;22.62;41.86;97793.66;105244;1287;22903;-85
2022/06/01 11:58:57;;;;;;;4.70;2.50;;;;;;;22.34;42.18;97806.05;105486;1286;22577;-85
2022/06/01 12:01:44;;;;;;;5.60;2.60;;;;;;;22.10;42.60;97805.16;105372;1286;23936;-87
2022/06/01 12:04:29;;;;;;;5.00;2.30;;;;;;;21.89;42.74;97799.14;105434;1287;22578;-87
2022/06/01 12:07:05;;;;;;;6.80;3.40;;;;;;;21.77;43.83;97796.59;106008;1280;22647;-86
2022/06/01 12:09:36;;;;;;;5.40;2.90;;;;;;;21.74;43.79;97795.84;106514;1280;26304;-86
2022/06/01 12:12:06;;;;;;;4.50;2.60;;;;;;;21.88;43.86;97797.88;106591;1277;22632;-87